• Join FlightAware (Why Join?)
  • Login
  • US Flag 
11:00AM EST


 

Airport Tracker/Info


-or-


 

Live Flight TrackerFlight Track Log ✈ N173AA ✈ 07-Jun-2013 ✈ KANB - KDWH

Flight Track Log - Related Links

Times and Time Zones

All times are in EDT time to prevent confusion due to time zone crossing. See the N173AA flight status page for this flight to view local times or setup timezone preferences in your user account.

Time Position Orientation Groundspeed Altitude Reporting Facility
EDT Latitude Longitude Course Direction KTS MPH feet Rate Location/Type
08:59AM 33.3815 -86.4870 239° Southwest  Level FlightAware Approximate
08:59AM 33.6089 -85.9144 247° West 160 184 5,000  Level Atlanta Center
09:00AM 33.3422 -86.5903 248° West  Level FlightAware Approximate
09:00AM 33.5783 -85.9986 246° West 224 258 6,100  Level Atlanta Center
09:01AM 33.3069 -86.6961 248° West  Level FlightAware Approximate
09:01AM 33.5603 -86.0781 255° West 246 283 7,400  Level Atlanta Center
09:02AM 33.2743 -86.8028 253° West  Level FlightAware Approximate
09:02AM 33.5403 -86.1497 252° West 253 291 9,200  Level Atlanta Center
09:03AM 33.2417 -86.9096 249° West  Level FlightAware Approximate
09:03AM 33.5142 -86.2189 246° West 236 272 10,800  Level Atlanta Center
09:04AM 33.4878 -86.2881 245° Southwest 230 265 12,000 1,320 Climbing Atlanta Center
09:05AM 33.4675 -86.3622 252° West 236 272 13,500 1,440 Climbing Atlanta Center
09:06AM 33.4475 -86.4314 251° West 236 272 14,900 1,260 Climbing Atlanta Center
09:07AM 33.4275 -86.4956 250° West 225 259 16,100 1,200 Climbing Atlanta Center
09:08AM 33.4011 -86.5644 245° Southwest 225 259 17,300 1,200 Climbing Atlanta Center
09:09AM 33.3767 -86.6308 246° West 230 265 18,500 1,020 Climbing Atlanta Center
09:10AM 33.3542 -86.7022 249° West 236 272 19,400 720 Climbing Atlanta Center
09:11AM 33.3297 -86.7811 250° West 242 278 20,000 300 Climbing Atlanta Center
09:12AM 33.3028 -86.8647 249° West 255 293 20,000  Level Atlanta Center
09:13AM 33.2692 -86.9606 247° West 280 322 20,000 60 Level Atlanta Center
09:14AM 33.2356 -87.0564 247° West 301 346 20,200 360 Climbing Atlanta Center
09:15AM 33.2128 -87.1350 251° West 301 346 20,800 900 Climbing Atlanta Center
09:16AM 33.1833 -87.2233 248° West 296 341 22,100 1,200 Climbing Atlanta Center
09:17AM 33.1561 -87.3017 247° West 279 321 23,200 900 Climbing Atlanta Center
09:18AM 33.1292 -87.3775 247° West 268 308 24,000 720 Climbing Atlanta Center
09:20AM 33.0706 -87.5633 249° West 277 319 25,600 540 Climbing Memphis Center
09:21AM 33.0389 -87.6461 245° Southwest 277 319 25,800 180 Climbing Memphis Center
09:22AM 33.0075 -87.7364 248° West 282 325 26,000 60 Climbing Memphis Center
09:23AM 32.9781 -87.8289 249° West 289 333 26,000  Level Memphis Center
09:24AM 32.9444 -87.9289 248° West 309 356 26,000  Level Memphis Center
09:25AM 32.9131 -88.0286 249° West 326 375 26,000  Level Memphis Center
09:26AM 32.8753 -88.1261 245° Southwest 326 375 26,000  Level Memphis Center
09:27AM 32.8417 -88.2308 249° West 331 381 26,000  Level Memphis Center
09:28AM 32.8097 -88.3306 249° West 337 388 26,000  Level Memphis Center
09:29AM 32.7717 -88.4300 246° West 337 388 26,000 -60 Level Memphis Center
09:30AM 32.7356 -88.5297 247° West 337 388 25,900  Descending Memphis Center
09:31AM 32.7017 -88.6317 248° West 337 388 26,000  Climbing Memphis Center
09:32AM 32.6694 -88.7236 247° West 337 388 26,000  Level Memphis Center
09:33AM 32.6353 -88.8228 248° West 343 395 26,000  Level Memphis Center
09:35AM 32.5603 -89.0264 246° West 337 388 26,000  Level Memphis Center
09:36AM 32.5281 -89.1278 249° West 337 388 26,000  Level Memphis Center
09:37AM 32.4914 -89.2292 247° West 337 388 26,000  Level Memphis Center
09:38AM 32.4525 -89.3283 245° Southwest 337 388 26,000  Level Memphis Center
09:39AM 32.4158 -89.4294 247° West 337 388 26,000  Level Memphis Center
09:40AM 32.3831 -89.5331 249° West 337 388 26,000  Level Memphis Center
09:41AM 32.3483 -89.6344 248° West 337 388 26,000  Level Memphis Center
09:42AM 32.3114 -89.7378 247° West 337 388 26,000  Level Memphis Center
09:43AM 32.2700 -89.8339 243° Southwest 337 388 26,000  Level Memphis Center
09:44AM 32.2264 -89.9350 243° Southwest 342 394 26,000  Level Memphis Center
09:45AM 32.1914 -90.0381 248° West 342 394 26,000  Level Memphis Center
09:46AM 32.1664 -90.1464 255° West 342 394 26,000 -120 Level Memphis Center
09:47AM 32.1353 -90.2519 251° West 342 394 25,800 -60 Descending Memphis Center
09:48AM 32.0875 -90.3475 239° Southwest 342 394 25,900 60 Climbing Memphis Center
09:49AM 32.0289 -90.4333 231° Southwest 337 388 26,000  Climbing Memphis Center
09:50AM 31.9808 -90.5264 239° Southwest 337 388 26,000  Level Memphis Center
09:51AM 31.9619 -90.6364 259° West 337 388 26,000  Level Memphis Center
09:52AM 31.9692 -90.7753 274° West 341 392 26,000  Level Houston Center
09:53AM 31.9486 -90.8767 257° West 339 390 26,000  Level Houston Center
09:54AM 31.9186 -90.9792 251° West 332 382 26,000  Level Houston Center
09:55AM 31.8703 -91.0742 239° Southwest 337 388 26,000  Level Houston Center
09:56AM 31.8128 -91.1631 233° Southwest 339 390 26,000 -60 Level Houston Center
09:57AM 31.7536 -91.2747 238° Southwest 336 387 25,900  Descending Houston Center
09:58AM 31.7383 -91.3847 261° West 337 388 26,000  Climbing Houston Center
09:59AM 31.7322 -91.4936 266° West 335 386 26,000  Level Houston Center
10:00AM 31.6989 -91.5964 249° West 337 388 26,000  Level Houston Center
10:01AM 31.6367 -91.6797 229° Southwest 335 386 26,000  Level Houston Center
10:03AM 31.5583 -91.7458 216° Southwest 341 392 26,000 -60 Level Houston Center
10:04AM 31.4697 -91.8311 219° Southwest 343 395 25,900  Descending Houston Center
10:05AM 31.4244 -91.9269 241° Southwest 338 389 26,000  Climbing Houston Center
10:06AM 31.3836 -92.0256 244° Southwest 336 387 26,000  Level Houston Center
10:07AM 31.3464 -92.1308 248° West 338 389 26,000  Level Houston Center
10:08AM 31.3161 -92.2350 251° West 338 389 26,000  Level Houston Center
10:09AM 31.2856 -92.3389 251° West 338 389 26,000  Level Houston Center
10:10AM 31.2533 -92.4431 250° West 340 391 26,000  Level Houston Center
10:11AM 31.2108 -92.5644 248° West 340 391 26,000  Level Houston Center
10:12AM 31.1750 -92.6669 248° West 342 394 26,000  Level Houston Center
10:13AM 31.1392 -92.7669 247° West 337 388 26,000  Level Houston Center
10:14AM 31.1019 -92.8678 247° West 339 390 26,000  Level Houston Center
10:15AM 31.0653 -92.9689 247° West 340 391 26,000  Level Houston Center
10:16AM 31.0281 -93.0694 247° West 340 391 26,000  Level Houston Center
10:17AM 30.9842 -93.1919 247° West 342 394 26,000  Level Houston Center
10:18AM 30.9483 -93.2936 248° West 343 395 26,000  Level Houston Center
10:19AM 30.9125 -93.3958 248° West 342 394 26,000 -60 Level Houston Center
10:20AM 30.8756 -93.4964 247° West 342 394 25,900 -480 Descending Houston Center
10:21AM 30.8375 -93.6011 247° West 352 405 25,000 -780 Descending Houston Center
10:22AM 30.7925 -93.7281 248° West 356 410 24,400 -1,020 Descending Houston Center
10:23AM 30.7539 -93.8336 247° West 357 411 23,000 -1,980 Descending Houston Center
10:24AM 30.7117 -93.9447 246° West 375 432 20,400 -2,280 Descending Houston Center
10:25AM 30.6761 -94.0478 248° West 352 405 18,400 -2,160 Descending Houston Center
10:26AM 30.6419 -94.1447 248° West 332 382 16,000 -2,580 Descending Houston Center
10:27AM 30.6092 -94.2278 245° Southwest 324 373 13,900 -2,820 Descending Houston Center
10:27AM 30.5983 -94.2592 248° West 326 375 13,100 -1,740 Descending Houston Center
10:28AM 30.5633 -94.3514 246° West 319 367 11,600 -1,500 Descending Houston Center
10:29AM 30.5547 -94.3758 248° West 302 348 11,200 -1,260 Descending Houston Center
10:29AM 30.5339 -94.4394 249° West 302 348 10,300 -1,440 Descending Houston Center
10:31AM 30.4897 -94.5517 245° Southwest 293 337 8,500 -1,380 Descending Houston Center
10:31AM 30.4614 -94.6222 245° Southwest 291 335 7,500 -1,140 Descending Houston Center
10:32AM 30.4394 -94.7064 253° West 279 321 6,400 -960 Descending Houston Center
10:34AM 30.4144 -94.7942 252° West 272 313 5,600 -660 Descending Houston Center
10:35AM 30.3908 -94.8761 252° West 275 316 5,100 -300 Descending Houston Center
10:36AM 30.3625 -94.9778 252° West 270 311 5,000 -300 Descending Houston Center
10:37AM 30.3469 -95.0408 254° West 266 306 4,600 -540 Descending Houston Center
10:38AM 30.3225 -95.1353 253° West 268 308 4,000 -300 Descending Houston Center
10:39AM 30.3131 -95.2139 262° West 249 287 4,000 -480 Level Houston Center
10:40AM 30.2997 -95.2978 260° West 251 289 3,100 -480 Descending Houston Center
10:41AM 30.2886 -95.3814 261° West 231 266 3,000 -60 Descending Houston Center
10:42AM 30.2814 -95.4403 262° West 196 226 3,000  Level Houston Center
10:43AM 30.2681 -95.5025 256° West 209 241 3,000 -60 Level Houston Center
10:44AM 30.2381 -95.5664 241° Southwest 214 246 2,900  Descending Houston Center
10:45AM 30.1936 -95.6081 219° Southwest 203 234 3,000  Climbing Houston Center
10:46AM 30.1328 -95.6344 201° Southwest 228 262 3,000  Level Houston Center
10:47AM 30.0733 -95.6486 192° South 220 253 3,000  Level Houston Center
10:48AM 30.0161 -95.6383 171° South 226 260 3,000  Level Houston Center
10:49AM 29.9575 -95.6456 186° South 225 259 3,000  Level Houston Center
10:49AM 29.9442 -95.6436 173° South 222 255 3,000 -120 Level Houston Center
10:50AM 29.8961 -95.6383 175° South 221 254 2,900  Descending Houston Center
10:50AM 29.8822 -95.6356 170° South 226 260 3,000 -720 Climbing Houston Center
10:51AM 29.8311 -95.6169 162° South 237 273 2,100 -600 Descending Houston Center
10:52AM 29.8386 -95.5608 81° East 198 228 2,000 -120 Descending Houston Center
10:52AM 29.8422 -95.5489 71° East 210 242 2,000  Level Houston Center
10:53AM 29.8778 -95.5294 25° Northeast 173 199 2,000  Level Houston Center
10:53AM 29.8869 -95.5278 North 194 223 2,000 -300 Level Houston Center
10:54AM 29.9264 -95.5333 353° North 171 197 1,700 -300 Descending Houston Center
10:54AM 29.9339 -95.5353 347° North 178 205 1,700  Level Houston Center
10:55AM 29.9817 -95.5414 354° North 179 206 1,700 -420 Level Houston Center
10:56AM 30.0222 -95.5461 354° North 141 162 1,000 -900 Descending Houston Center
10:56AM 30.0322 -95.5469 356° North 158 182 600 -1,140 Descending Houston Center